Time;durP1;ratioP1;P1;durP2;ratioP2;P2;SDS_P1;SDS_P2;PMS_P1;PMS_P2;Temp;Humidity;BMP_temperature;BMP_pressure;BME280_temperature;BME280_humidity;BME280_pressure;Samples;Min_cycle;Max_cycle;Signal;HPM_P1;HPM_P2
2021/03/31 00:01:22;;;;;;;19.40;13.37;;;;;;;;;;5011170;28;20430;-53
2021/03/31 00:03:48;;;;;;;28.90;15.60;;;;;;;;;;5011793;28;20429;-53
2021/03/31 00:06:14;;;;;;;21.83;12.00;;;;;;;;;;5011686;28;20990;-53
2021/03/31 00:08:40;;;;;;;18.73;12.57;;;;;;;;;;5011482;28;20828;-54
2021/03/31 00:11:06;;;;;;;24.97;13.00;;;;;;;;;;5011654;28;20410;-52
2021/03/31 00:13:32;;;;;;;23.43;14.00;;;;;;;;;;5010662;28;20463;-52
2021/03/31 00:15:58;;;;;;;24.00;13.70;;;;;;;;;;5011717;28;20411;-53
2021/03/31 00:18:24;;;;;;;22.43;13.87;;;;;;;;;;5011620;28;20485;-53
2021/03/31 00:20:51;;;;;;;20.90;12.40;;;;;;;;;;5011560;28;20823;-54
2021/03/31 00:23:19;;;;;;;19.17;11.50;;;;;;;;;;5011369;28;20434;-52
2021/03/31 00:25:45;;;;;;;25.23;14.37;;;;;;;;;;5011323;28;20514;-53
2021/03/31 00:28:12;;;;;;;21.30;14.13;;;;;;;;;;5011277;28;20970;-52
2021/03/31 00:30:38;;;;;;;24.40;13.23;;;;;;;;;;5011396;28;20389;-52
2021/03/31 00:33:04;;;;;;;22.27;15.20;;;;;;;;;;5011245;28;20954;-53
2021/03/31 00:35:30;;;;;;;24.27;14.70;;;;;;;;;;5011274;28;20378;-52
2021/03/31 00:37:56;;;;;;;15.90;11.93;;;;;;;;;;5011057;28;20435;-52
2021/03/31 00:40:25;;;;;;;25.03;16.27;;;;;;;;;;5011147;28;20430;-52
2021/03/31 00:42:51;;;;;;;16.80;11.50;;;;;;;;;;5011136;28;20507;-53
2021/03/31 00:45:17;;;;;;;20.10;12.30;;;;;;;;;;5009833;28;20409;-53
2021/03/31 00:47:43;;;;;;;18.97;9.80;;;;;;;;;;5011074;28;20410;-53
2021/03/31 00:50:10;;;;;;;12.60;9.40;;;;;;;;;;5011024;28;20414;-53
2021/03/31 00:52:37;;;;;;;19.00;13.27;;;;;;;;;;5010971;28;20466;-53
2021/03/31 00:55:03;;;;;;;15.50;10.60;;;;;;;;;;5011302;28;20410;-53
2021/03/31 00:57:29;;;;;;;22.70;12.87;;;;;;;;;;5011398;28;20403;-52
2021/03/31 00:59:55;;;;;;;19.67;12.87;;;;;;;;;;5010963;28;20399;-53
2021/03/31 01:02:21;;;;;;;19.77;12.80;;;;;;;;;;5010272;28;20493;-53
2021/03/31 01:04:47;;;;;;;14.07;9.83;;;;;;;;;;5010242;28;20526;-53
2021/03/31 01:07:13;;;;;;;15.63;9.60;;;;;;;;;;5010543;28;20443;-52
2021/03/31 01:09:39;;;;;;;15.97;11.50;;;;;;;;;;5011039;28;20457;-53
2021/03/31 01:12:08;;;;;;;17.63;11.50;;;;;;;;;;5010748;28;20462;-53
2021/03/31 01:14:43;;;;;;;16.47;11.03;;;;;;;;;;5009789;28;20434;-54
2021/03/31 01:17:12;;;;;;;17.23;11.33;;;;;;;;;;5011624;28;20394;-53
2021/03/31 01:19:56;;;;;;;16.73;10.47;;;;;;;;;;5014750;28;20413;-54
2021/03/31 01:22:41;;;;;;;22.70;10.90;;;;;;;;;;5014575;28;20436;-52
2021/03/31 01:25:09;;;;;;;18.97;10.67;;;;;;;;;;5015000;28;20448;-52
2021/03/31 01:27:54;;;;;;;14.87;10.30;;;;;;;;;;5014681;28;20424;-51
2021/03/31 01:30:39;;;;;;;16.93;11.10;;;;;;;;;;5014996;28;20404;-51
2021/03/31 01:33:12;;;;;;;14.20;9.27;;;;;;;;;;5014832;28;20460;-52
2021/03/31 01:35:39;;;;;;;20.53;10.80;;;;;;;;;;5014697;28;20402;-52
2021/03/31 01:38:07;;;;;;;18.50;10.53;;;;;;;;;;5014057;28;20815;-52
2021/03/31 01:40:36;;;;;;;20.17;11.40;;;;;;;;;;5014437;28;20842;-52
2021/03/31 01:43:04;;;;;;;15.80;10.47;;;;;;;;;;5014311;28;20500;-52
2021/03/31 01:45:31;;;;;;;16.07;10.10;;;;;;;;;;5013626;28;20469;-52
2021/03/31 01:47:59;;;;;;;17.67;10.37;;;;;;;;;;5014263;28;20455;-53
2021/03/31 01:50:25;;;;;;;17.10;9.43;;;;;;;;;;5014092;28;20878;-53
2021/03/31 01:52:51;;;;;;;15.90;9.80;;;;;;;;;;5014148;28;20499;-53
2021/03/31 01:55:17;;;;;;;12.60;9.30;;;;;;;;;;5014160;28;20430;-52
2021/03/31 01:57:44;;;;;;;12.47;9.83;;;;;;;;;;5014075;28;20815;-52
2021/03/31 02:00:12;;;;;;;13.10;8.10;;;;;;;;;;5014016;28;20409;-52
2021/03/31 02:02:38;;;;;;;12.00;9.10;;;;;;;;;;5014083;28;20405;-53
2021/03/31 02:05:05;;;;;;;11.20;9.00;;;;;;;;;;5013919;28;20460;-52
2021/03/31 02:07:31;;;;;;;14.73;9.07;;;;;;;;;;5013834;28;20467;-54
2021/03/31 02:09:57;;;;;;;10.40;8.60;;;;;;;;;;5013844;28;20410;-53
2021/03/31 02:12:24;;;;;;;12.43;8.50;;;;;;;;;;5013858;28;20465;-52
2021/03/31 02:14:51;;;;;;;9.43;7.93;;;;;;;;;;5013889;28;20489;-53
2021/03/31 02:17:23;;;;;;;9.57;7.57;;;;;;;;;;5012801;28;20430;-53
2021/03/31 02:19:50;;;;;;;11.87;8.00;;;;;;;;;;5013610;28;20857;-52
2021/03/31 02:22:21;;;;;;;9.60;6.40;;;;;;;;;;5013768;28;20423;-53
2021/03/31 02:24:47;;;;;;;12.57;7.63;;;;;;;;;;5013729;28;20411;-53
2021/03/31 02:27:13;;;;;;;13.10;7.73;;;;;;;;;;5013520;28;20858;-53
2021/03/31 02:29:40;;;;;;;12.40;8.53;;;;;;;;;;5013252;28;20373;-53
2021/03/31 02:32:07;;;;;;;17.20;8.20;;;;;;;;;;5013413;28;20942;-53
2021/03/31 02:34:34;;;;;;;10.80;8.30;;;;;;;;;;5013506;28;20414;-53
2021/03/31 02:37:00;;;;;;;11.40;8.37;;;;;;;;;;5013422;28;20410;-52
2021/03/31 02:39:27;;;;;;;15.57;7.80;;;;;;;;;;5013346;28;20392;-52
2021/03/31 02:41:55;;;;;;;17.30;8.30;;;;;;;;;;5013281;28;20461;-53
2021/03/31 02:44:22;;;;;;;14.67;9.03;;;;;;;;;;5013497;28;20922;-52
2021/03/31 02:46:48;;;;;;;10.53;7.30;;;;;;;;;;5012423;28;20409;-52
2021/03/31 02:49:16;;;;;;;11.50;6.97;;;;;;;;;;5013136;28;20413;-53
2021/03/31 02:51:43;;;;;;;10.37;6.63;;;;;;;;;;5013434;28;20501;-52
2021/03/31 02:54:09;;;;;;;12.60;6.47;;;;;;;;;;5013552;28;20404;-53
2021/03/31 02:56:38;;;;;;;15.30;7.30;;;;;;;;;;5012372;28;21197;-53
2021/03/31 02:59:05;;;;;;;13.70;7.03;;;;;;;;;;5012784;28;20777;-52
2021/03/31 03:01:31;;;;;;;12.27;7.37;;;;;;;;;;5013007;28;20401;-53
2021/03/31 03:03:57;;;;;;;12.53;7.50;;;;;;;;;;5012886;28;20414;-53
2021/03/31 03:06:24;;;;;;;14.73;8.70;;;;;;;;;;5013147;28;20414;-52
2021/03/31 03:08:51;;;;;;;15.97;8.07;;;;;;;;;;5012619;28;20427;-52
2021/03/31 03:11:17;;;;;;;15.43;8.37;;;;;;;;;;5012851;28;20460;-52
2021/03/31 03:13:44;;;;;;;12.17;7.43;;;;;;;;;;5012835;28;20408;-53
2021/03/31 03:16:11;;;;;;;11.43;7.40;;;;;;;;;;5011542;28;20478;-52
2021/03/31 03:18:37;;;;;;;11.20;7.20;;;;;;;;;;5012374;28;20476;-52
2021/03/31 03:21:03;;;;;;;12.60;5.80;;;;;;;;;;5012644;28;20458;-52
2021/03/31 03:23:30;;;;;;;10.00;5.93;;;;;;;;;;5012553;28;20465;-52
2021/03/31 03:25:59;;;;;;;12.70;7.40;;;;;;;;;;5012595;28;20497;-52
2021/03/31 03:28:26;;;;;;;7.80;5.83;;;;;;;;;;5012172;28;20415;-52
2021/03/31 03:30:53;;;;;;;12.70;7.63;;;;;;;;;;5012465;28;20444;-54
2021/03/31 03:33:19;;;;;;;10.17;6.47;;;;;;;;;;5012221;28;20494;-53
2021/03/31 03:35:45;;;;;;;13.20;8.53;;;;;;;;;;5012243;28;20972;-53
2021/03/31 03:38:11;;;;;;;9.50;7.50;;;;;;;;;;5012121;28;20426;-52
2021/03/31 03:40:37;;;;;;;9.90;6.20;;;;;;;;;;5011616;28;20437;-53
2021/03/31 03:43:03;;;;;;;10.10;6.50;;;;;;;;;;5012075;28;20929;-53
2021/03/31 03:45:30;;;;;;;12.60;8.50;;;;;;;;;;5011291;28;20428;-53
2021/03/31 03:47:58;;;;;;;13.37;8.30;;;;;;;;;;5012083;28;20407;-52
2021/03/31 03:50:24;;;;;;;8.93;7.60;;;;;;;;;;5012054;28;20471;-53
2021/03/31 03:52:51;;;;;;;8.47;6.47;;;;;;;;;;5011985;28;20505;-52
2021/03/31 03:55:21;;;;;;;11.03;7.17;;;;;;;;;;5012089;28;20432;-52
2021/03/31 03:57:47;;;;;;;6.97;5.93;;;;;;;;;;5011781;28;20399;-53
2021/03/31 04:00:21;;;;;;;12.67;6.00;;;;;;;;;;5012116;28;20957;-53
2021/03/31 04:02:53;;;;;;;7.80;5.90;;;;;;;;;;5011857;28;20846;-53
2021/03/31 04:05:20;;;;;;;7.77;6.10;;;;;;;;;;5011769;28;20395;-53
2021/03/31 04:07:46;;;;;;;10.20;5.70;;;;;;;;;;5011648;28;20559;-52
2021/03/31 04:10:12;;;;;;;7.47;5.37;;;;;;;;;;5011716;28;20420;-53
2021/03/31 04:12:39;;;;;;;7.93;5.07;;;;;;;;;;5011773;28;20469;-52
2021/03/31 04:15:06;;;;;;;6.77;5.20;;;;;;;;;;5010518;28;20445;-52
2021/03/31 04:17:32;;;;;;;8.47;6.13;;;;;;;;;;5011357;28;20404;-53
2021/03/31 04:19:58;;;;;;;12.37;7.00;;;;;;;;;;5011588;28;20374;-52
2021/03/31 04:22:24;;;;;;;8.60;6.13;;;;;;;;;;5011439;28;20822;-52
2021/03/31 04:24:50;;;;;;;10.90;7.10;;;;;;;;;;5011533;28;20462;-53
2021/03/31 04:27:17;;;;;;;10.90;7.40;;;;;;;;;;5011416;28;20407;-53
2021/03/31 04:29:44;;;;;;;8.47;7.30;;;;;;;;;;5011387;28;20489;-54
2021/03/31 04:32:13;;;;;;;7.13;6.40;;;;;;;;;;5010127;28;20519;-52
2021/03/31 04:34:39;;;;;;;10.90;6.33;;;;;;;;;;5011624;28;20402;-54
2021/03/31 04:37:05;;;;;;;9.27;5.97;;;;;;;;;;5011425;28;20399;-52
2021/03/31 04:39:32;;;;;;;10.70;6.00;;;;;;;;;;5011130;28;20770;-52
2021/03/31 04:41:57;;;;;;;8.33;6.50;;;;;;;;;;5011350;28;20493;-52
2021/03/31 04:44:23;;;;;;;12.87;7.33;;;;;;;;;;5011209;28;20949;-53
2021/03/31 04:46:49;;;;;;;12.83;8.43;;;;;;;;;;5010284;28;20884;-53
2021/03/31 04:49:15;;;;;;;14.37;8.00;;;;;;;;;;5010921;28;20412;-54
2021/03/31 04:51:41;;;;;;;10.27;6.70;;;;;;;;;;5010191;28;20437;-53
2021/03/31 04:54:07;;;;;;;15.23;6.27;;;;;;;;;;5011051;28;20406;-53
2021/03/31 04:56:33;;;;;;;10.27;6.60;;;;;;;;;;5011155;28;20436;-52
2021/03/31 04:58:59;;;;;;;12.37;7.97;;;;;;;;;;5010726;28;20441;-52
2021/03/31 05:01:25;;;;;;;11.93;7.43;;;;;;;;;;5010941;28;20480;-52
2021/03/31 05:03:51;;;;;;;10.23;7.10;;;;;;;;;;5010898;28;20410;-52
2021/03/31 05:06:17;;;;;;;9.30;6.70;;;;;;;;;;5010976;28;21060;-53
2021/03/31 05:08:43;;;;;;;13.20;7.50;;;;;;;;;;5010593;28;20803;-52
2021/03/31 05:11:09;;;;;;;12.97;6.33;;;;;;;;;;5010950;28;20908;-53
2021/03/31 05:13:35;;;;;;;12.23;7.77;;;;;;;;;;5010814;28;20946;-52
2021/03/31 05:16:01;;;;;;;10.40;5.67;;;;;;;;;;5009555;28;20415;-53
2021/03/31 05:18:27;;;;;;;10.10;6.60;;;;;;;;;;5010966;28;20409;-52
2021/03/31 05:20:53;;;;;;;10.53;6.23;;;;;;;;;;5010820;28;20424;-53
2021/03/31 05:23:19;;;;;;;11.30;6.90;;;;;;;;;;5010819;28;20419;-53
2021/03/31 05:25:46;;;;;;;8.90;6.60;;;;;;;;;;5010657;28;20399;-53
2021/03/31 05:28:12;;;;;;;8.30;5.20;;;;;;;;;;5010531;28;20410;-53
2021/03/31 05:30:38;;;;;;;13.13;7.10;;;;;;;;;;5010581;28;20468;-53
2021/03/31 05:33:04;;;;;;;9.87;6.93;;;;;;;;;;5010675;28;20462;-53
2021/03/31 05:35:30;;;;;;;9.70;6.20;;;;;;;;;;5010600;28;20404;-52
2021/03/31 05:37:56;;;;;;;11.77;7.20;;;;;;;;;;5010428;28;20410;-53
2021/03/31 05:40:22;;;;;;;13.40;6.77;;;;;;;;;;5010581;28;20406;-52
2021/03/31 05:42:48;;;;;;;11.53;6.43;;;;;;;;;;5010561;28;20439;-52
2021/03/31 05:45:14;;;;;;;9.30;7.00;;;;;;;;;;5009570;28;20424;-53
2021/03/31 05:47:45;;;;;;;14.33;6.53;;;;;;;;;;5010476;28;20411;-52
2021/03/31 05:50:15;;;;;;;13.83;7.10;;;;;;;;;;5010552;28;20407;-52
2021/03/31 05:52:42;;;;;;;9.27;6.33;;;;;;;;;;5010711;28;20532;-53
2021/03/31 05:55:08;;;;;;;13.57;6.77;;;;;;;;;;5010508;28;20757;-53
2021/03/31 05:57:35;;;;;;;8.80;6.20;;;;;;;;;;5010131;28;20728;-53
2021/03/31 06:00:02;;;;;;;9.90;7.20;;;;;;;;;;5010309;28;20415;-53
2021/03/31 06:02:29;;;;;;;9.93;7.37;;;;;;;;;;5010189;28;20934;-53
2021/03/31 06:04:54;;;;;;;8.23;7.03;;;;;;;;;;5012468;28;20965;-52
2021/03/31 06:07:21;;;;;;;12.83;7.40;;;;;;;;;;5014037;28;20438;-52
2021/03/31 06:10:06;;;;;;;11.87;7.40;;;;;;;;;;5013418;28;20407;-52
2021/03/31 06:12:34;;;;;;;14.70;8.13;;;;;;;;;;5013304;28;21037;-53
2021/03/31 06:15:09;;;;;;;15.87;7.40;;;;;;;;;;5013290;28;20422;-53
2021/03/31 06:17:45;;;;;;;12.50;9.13;;;;;;;;;;5012150;28;20411;-53
2021/03/31 06:20:12;;;;;;;12.20;7.60;;;;;;;;;;5013725;28;20384;-54
2021/03/31 06:23:10;;;;;;;13.20;8.50;;;;;;;;;;5013280;28;20517;-52
2021/03/31 06:25:29;;;;;;;22.93;9.13;;;;;;;;;;5012869;28;20888;-53
2021/03/31 06:27:59;;;;;;;16.97;8.90;;;;;;;;;;5012835;28;20510;-52
2021/03/31 06:30:28;;;;;;;14.67;10.30;;;;;;;;;;5013256;28;20403;-53
2021/03/31 06:32:54;;;;;;;21.73;11.00;;;;;;;;;;5012926;28;20529;-53
2021/03/31 06:35:23;;;;;;;21.57;11.43;;;;;;;;;;5013267;28;20767;-53
2021/03/31 06:37:49;;;;;;;21.77;11.80;;;;;;;;;;5012714;28;20411;-52
2021/03/31 06:40:55;;;;;;;28.27;12.90;;;;;;;;;;5012964;28;20389;-52
2021/03/31 06:43:37;;;;;;;30.17;12.90;;;;;;;;;;5013367;28;20802;-53
2021/03/31 06:46:10;;;;;;;21.10;12.53;;;;;;;;;;5012930;28;20452;-53
2021/03/31 06:48:42;;;;;;;23.07;12.57;;;;;;;;;;5013336;28;20401;-53
2021/03/31 06:51:29;;;;;;;20.73;10.40;;;;;;;;;;5013778;28;20410;-52
2021/03/31 06:53:55;;;;;;;27.90;11.90;;;;;;;;;;5013382;28;20401;-53
2021/03/31 06:56:28;;;;;;;23.57;11.97;;;;;;;;;;5013367;28;20482;-53
2021/03/31 06:59:00;;;;;;;23.73;12.70;;;;;;;;;;5013465;28;20399;-53
2021/03/31 07:01:28;;;;;;;24.60;13.10;;;;;;;;;;5012776;28;20423;-53
2021/03/31 07:03:55;;;;;;;28.73;10.93;;;;;;;;;;5012538;28;20384;-53
2021/03/31 07:06:21;;;;;;;31.67;11.73;;;;;;;;;;5012263;28;20405;-53
2021/03/31 07:08:47;;;;;;;21.77;11.80;;;;;;;;;;5012783;28;20399;-54
2021/03/31 07:11:30;;;;;;;22.03;11.67;;;;;;;;;;5012770;28;20483;-54
2021/03/31 07:13:59;;;;;;;20.07;11.37;;;;;;;;;;5012827;28;20442;-53
2021/03/31 07:16:26;;;;;;;25.70;14.87;;;;;;;;;;5010999;28;20446;-54
2021/03/31 07:18:53;;;;;;;19.73;11.23;;;;;;;;;;5012565;28;20395;-54
2021/03/31 07:21:20;;;;;;;20.67;10.13;;;;;;;;;;5012651;28;20412;-54
2021/03/31 07:23:47;;;;;;;20.00;11.67;;;;;;;;;;5012737;28;20387;-54
2021/03/31 07:26:13;;;;;;;19.20;11.07;;;;;;;;;;5012397;28;20394;-54
2021/03/31 07:28:40;;;;;;;19.97;10.30;;;;;;;;;;5012279;28;20402;-54
2021/03/31 07:31:09;;;;;;;23.20;11.23;;;;;;;;;;5012394;28;20391;-54
2021/03/31 07:33:41;;;;;;;36.63;11.63;;;;;;;;;;5012481;28;20516;-54
2021/03/31 07:36:10;;;;;;;17.20;10.60;;;;;;;;;;5012371;28;20414;-54
2021/03/31 07:38:37;;;;;;;21.20;10.27;;;;;;;;;;5012062;28;20439;-54
2021/03/31 07:41:03;;;;;;;18.60;10.73;;;;;;;;;;5012137;28;20403;-55
2021/03/31 07:43:31;;;;;;;13.60;9.77;;;;;;;;;;5012209;28;20411;-54
2021/03/31 07:45:57;;;;;;;19.43;10.30;;;;;;;;;;5011266;28;20430;-54
2021/03/31 07:48:23;;;;;;;23.03;11.33;;;;;;;;;;5011446;28;20399;-54
2021/03/31 07:50:49;;;;;;;19.13;11.20;;;;;;;;;;5012170;28;20258;-55
2021/03/31 07:53:15;;;;;;;21.73;10.70;;;;;;;;;;5011837;28;20470;-54
2021/03/31 07:55:45;;;;;;;15.70;10.43;;;;;;;;;;5012060;28;20400;-54
2021/03/31 07:58:14;;;;;;;17.90;10.87;;;;;;;;;;5011782;28;20411;-54
2021/03/31 08:03:23;;;;;;;16.30;9.30;;;;;;;;;;5011734;28;20768;-54
2021/03/31 08:06:05;;;;;;;14.90;10.23;;;;;;;;;;5011897;28;20434;-54
2021/03/31 08:08:31;;;;;;;13.03;8.90;;;;;;;;;;5011637;28;20522;-55
2021/03/31 08:10:59;;;;;;;18.80;9.60;;;;;;;;;;5011725;28;20478;-55
2021/03/31 08:13:29;;;;;;;15.40;9.43;;;;;;;;;;5010328;28;20474;-54
2021/03/31 08:15:55;;;;;;;14.37;9.40;;;;;;;;;;5010659;28;20943;-55
2021/03/31 08:18:22;;;;;;;13.20;9.57;;;;;;;;;;5011360;28;20902;-55
2021/03/31 08:20:49;;;;;;;13.33;9.33;;;;;;;;;;5011696;28;20399;-55
2021/03/31 08:23:15;;;;;;;14.37;8.90;;;;;;;;;;5011669;28;20422;-55
2021/03/31 08:25:41;;;;;;;15.43;9.17;;;;;;;;;;5011340;28;21079;-55
2021/03/31 08:28:08;;;;;;;12.83;7.63;;;;;;;;;;5011392;28;20498;-56
2021/03/31 08:30:36;;;;;;;15.10;7.90;;;;;;;;;;5011413;28;20494;-55
2021/03/31 08:33:03;;;;;;;10.60;7.33;;;;;;;;;;5011355;28;20872;-55
2021/03/31 08:35:29;;;;;;;11.70;7.70;;;;;;;;;;5011308;28;20422;-55
2021/03/31 08:37:56;;;;;;;11.53;6.80;;;;;;;;;;5011271;28;20407;-55
2021/03/31 08:40:22;;;;;;;9.87;7.10;;;;;;;;;;5011195;28;20498;-55
2021/03/31 08:42:59;;;;;;;11.40;7.00;;;;;;;;;;5011214;28;20450;-55
2021/03/31 08:45:30;;;;;;;10.40;7.33;;;;;;;;;;5010537;28;20934;-55
2021/03/31 08:47:58;;;;;;;12.90;7.47;;;;;;;;;;5011367;28;20462;-55
2021/03/31 08:50:25;;;;;;;10.50;6.13;;;;;;;;;;5011325;28;21018;-56
2021/03/31 08:52:57;;;;;;;10.60;6.63;;;;;;;;;;5011158;28;20469;-55
2021/03/31 08:55:29;;;;;;;10.50;7.50;;;;;;;;;;5011067;28;20406;-55
2021/03/31 08:57:55;;;;;;;14.40;6.80;;;;;;;;;;5004204;28;20422;-54
2021/03/31 09:00:21;;;;;;;7.93;6.60;;;;;;;;;;4997150;28;20400;-56
2021/03/31 09:02:47;;;;;;;12.77;6.70;;;;;;;;;;4995395;28;20423;-56
2021/03/31 09:05:16;;;;;;;8.23;6.73;;;;;;;;;;4995232;28;20392;-57
2021/03/31 09:07:42;;;;;;;8.23;6.20;;;;;;;;;;4995477;28;20413;-57
2021/03/31 09:10:13;;;;;;;7.90;6.23;;;;;;;;;;4998336;28;20400;-57
2021/03/31 09:12:39;;;;;;;6.17;5.57;;;;;;;;;;4998710;28;20517;-57
2021/03/31 09:15:05;;;;;;;9.43;6.13;;;;;;;;;;5000998;28;20430;-57
2021/03/31 09:17:32;;;;;;;7.73;5.93;;;;;;;;;;5017567;28;20433;-56
2021/03/31 09:19:59;;;;;;;6.00;5.40;;;;;;;;;;5016333;28;20399;-57
2021/03/31 09:22:27;;;;;;;9.50;6.13;;;;;;;;;;5015568;28;20435;-56
2021/03/31 09:24:58;;;;;;;9.27;6.20;;;;;;;;;;5015626;28;20446;-56
2021/03/31 09:27:26;;;;;;;7.70;5.10;;;;;;;;;;5016236;28;20946;-56
2021/03/31 09:29:54;;;;;;;7.30;5.80;;;;;;;;;;5017044;28;20403;-57
2021/03/31 09:32:42;;;;;;;8.37;5.17;;;;;;;;;;5016559;28;20466;-56
2021/03/31 09:35:09;;;;;;;8.07;4.97;;;;;;;;;;5015636;28;20482;-55
2021/03/31 09:37:47;;;;;;;7.70;5.23;;;;;;;;;;5014645;28;20902;-55
2021/03/31 09:40:19;;;;;;;7.87;5.70;;;;;;;;;;5020201;28;20418;-57
2021/03/31 09:42:45;;;;;;;6.20;5.00;;;;;;;;;;5019426;28;20435;-55
2021/03/31 09:45:12;;;;;;;5.53;5.00;;;;;;;;;;5019004;28;20407;-55
2021/03/31 09:47:39;;;;;;;6.13;5.53;;;;;;;;;;5017733;28;20513;-57
2021/03/31 09:50:09;;;;;;;6.80;5.80;;;;;;;;;;5019341;28;20553;-56
2021/03/31 09:52:35;;;;;;;6.03;5.43;;;;;;;;;;5020036;28;20466;-56
2021/03/31 09:55:02;;;;;;;6.00;5.27;;;;;;;;;;5020937;28;20402;-55
2021/03/31 09:57:30;;;;;;;5.90;4.67;;;;;;;;;;5020314;28;20411;-57
2021/03/31 10:00:00;;;;;;;7.17;4.50;;;;;;;;;;5019904;28;20403;-56
2021/03/31 10:02:27;;;;;;;6.67;5.23;;;;;;;;;;5020061;28;20458;-56
2021/03/31 10:04:53;;;;;;;7.90;4.50;;;;;;;;;;5019443;28;20411;-57
2021/03/31 10:07:19;;;;;;;6.80;5.27;;;;;;;;;;5018610;28;20473;-56
2021/03/31 10:09:53;;;;;;;7.97;4.77;;;;;;;;;;5019242;28;20903;-56
2021/03/31 10:12:29;;;;;;;5.87;5.17;;;;;;;;;;5018907;28;20852;-56
2021/03/31 10:14:55;;;;;;;6.87;5.33;;;;;;;;;;5019910;28;20443;-57
2021/03/31 10:17:23;;;;;;;6.43;5.50;;;;;;;;;;5019773;28;20440;-57
2021/03/31 10:19:49;;;;;;;8.90;5.00;;;;;;;;;;5019701;28;20399;-56
2021/03/31 10:22:16;;;;;;;5.77;5.17;;;;;;;;;;5017641;28;20418;-57
2021/03/31 10:24:43;;;;;;;7.17;4.93;;;;;;;;;;5016782;28;20481;-55
2021/03/31 10:27:11;;;;;;;5.33;4.63;;;;;;;;;;5018013;28;20787;-56
2021/03/31 10:29:44;;;;;;;7.83;5.23;;;;;;;;;;5017715;28;20973;-54
2021/03/31 10:32:17;;;;;;;5.77;4.73;;;;;;;;;;5018220;28;20454;-57
2021/03/31 10:34:45;;;;;;;5.90;4.77;;;;;;;;;;5019934;28;20479;-55
2021/03/31 10:51:09;;;;;;;7.63;4.53;;;;;;;;;;5018909;28;20494;-55
2021/03/31 10:53:41;;;;;;;7.47;5.03;;;;;;;;;;5018580;28;20450;-57
2021/03/31 10:56:08;;;;;;;4.80;4.40;;;;;;;;;;5019101;28;20498;-56
2021/03/31 10:58:34;;;;;;;9.17;5.40;;;;;;;;;;5017621;28;20809;-56
2021/03/31 11:01:00;;;;;;;8.33;5.23;;;;;;;;;;5016962;28;20900;-55
2021/03/31 11:03:26;;;;;;;6.00;5.40;;;;;;;;;;5016971;28;20465;-55
2021/03/31 11:05:54;;;;;;;6.43;4.93;;;;;;;;;;5016907;28;20786;-56
2021/03/31 11:08:20;;;;;;;9.43;4.87;;;;;;;;;;5016789;28;20486;-55
2021/03/31 11:10:46;;;;;;;4.50;4.10;;;;;;;;;;5014495;28;20423;-55
2021/03/31 11:13:12;;;;;;;5.73;4.23;;;;;;;;;;5016062;28;20451;-56
2021/03/31 11:15:39;;;;;;;7.40;4.47;;;;;;;;;;5015553;28;20438;-57
2021/03/31 11:18:11;;;;;;;7.30;4.70;;;;;;;;;;5016973;28;20172;-55
2021/03/31 11:25:56;;;;;;;4.77;4.33;;;;;;;;;;5016536;28;20427;-56
2021/03/31 11:28:22;;;;;;;4.73;3.80;;;;;;;;;;5015823;28;20770;-55
2021/03/31 11:30:49;;;;;;;6.73;4.10;;;;;;;;;;5015915;28;20461;-55
2021/03/31 11:33:16;;;;;;;4.33;3.97;;;;;;;;;;5016008;28;20557;-56
2021/03/31 11:35:43;;;;;;;4.07;3.70;;;;;;;;;;5015234;28;20395;-55
2021/03/31 11:38:09;;;;;;;4.50;4.20;;;;;;;;;;5014675;28;20766;-55
2021/03/31 11:40:35;;;;;;;4.93;4.20;;;;;;;;;;5014232;28;20469;-56
2021/03/31 11:43:02;;;;;;;4.60;4.07;;;;;;;;;;5017814;28;20538;-57
2021/03/31 11:45:28;;;;;;;4.40;3.90;;;;;;;;;;5017219;28;20550;-57
2021/03/31 11:47:54;;;;;;;5.43;4.23;;;;;;;;;;5017939;28;20438;-57
2021/03/31 11:50:24;;;;;;;5.40;5.00;;;;;;;;;;5016959;28;20403;-57
2021/03/31 11:52:50;;;;;;;9.13;4.17;;;;;;;;;;5016240;28;20871;-57
2021/03/31 11:55:16;;;;;;;3.93;3.53;;;;;;;;;;5014180;28;20403;-55
2021/03/31 11:57:42;;;;;;;12.20;4.33;;;;;;;;;;5016111;28;20442;-55
2021/03/31 12:00:08;;;;;;;4.23;3.60;;;;;;;;;;5017008;28;20399;-55
2021/03/31 12:02:34;;;;;;;7.53;4.40;;;;;;;;;;5015275;28;20547;-55
2021/03/31 12:05:01;;;;;;;4.33;3.53;;;;;;;;;;5017072;28;20406;-56
2021/03/31 12:07:28;;;;;;;5.50;3.87;;;;;;;;;;5015754;28;20901;-56
2021/03/31 12:09:54;;;;;;;4.33;3.93;;;;;;;;;;5015912;28;20482;-57
2021/03/31 12:12:20;;;;;;;7.10;3.87;;;;;;;;;;5014391;28;20446;-57
2021/03/31 12:14:46;;;;;;;5.90;4.07;;;;;;;;;;5013294;28;20406;-57
2021/03/31 12:17:12;;;;;;;6.37;4.10;;;;;;;;;;5014164;28;20431;-57
2021/03/31 12:19:38;;;;;;;4.43;3.47;;;;;;;;;;5014104;28;20511;-57
2021/03/31 12:22:04;;;;;;;5.10;3.77;;;;;;;;;;5015981;28;20961;-57
2021/03/31 12:24:30;;;;;;;4.03;3.43;;;;;;;;;;5014282;28;20431;-57
2021/03/31 12:27:03;;;;;;;4.20;3.80;;;;;;;;;;5015653;28;20752;-57
2021/03/31 12:29:29;;;;;;;5.57;3.90;;;;;;;;;;5011912;28;20423;-57
2021/03/31 12:31:55;;;;;;;4.93;3.90;;;;;;;;;;5014594;28;21016;-57
2021/03/31 12:34:21;;;;;;;4.83;4.13;;;;;;;;;;5014988;28;20416;-57
2021/03/31 12:36:47;;;;;;;4.37;3.50;;;;;;;;;;5015140;28;20446;-57
2021/03/31 12:39:13;;;;;;;4.73;3.60;;;;;;;;;;5014644;28;20930;-56
2021/03/31 12:41:39;;;;;;;5.60;2.73;;;;;;;;;;5014726;28;20439;-57
2021/03/31 12:44:05;;;;;;;3.13;2.80;;;;;;;;;;5015764;28;20994;-57
2021/03/31 12:46:32;;;;;;;3.30;3.00;;;;;;;;;;5016083;28;20407;-56
2021/03/31 12:48:59;;;;;;;3.63;2.70;;;;;;;;;;5015342;28;20407;-55
2021/03/31 12:51:32;;;;;;;3.47;2.87;;;;;;;;;;5015149;28;20525;-55
2021/03/31 12:54:46;;;;;;;3.07;2.67;;;;;;;;;;5015821;28;20407;-57
2021/03/31 12:56:48;;;;;;;8.63;4.03;;;;;;;;;;5008851;28;20470;-57
2021/03/31 12:59:14;;;;;;;6.13;3.43;;;;;;;;;;5011519;28;20400;-52
2021/03/31 13:01:40;;;;;;;3.13;2.83;;;;;;;;;;5010993;28;20434;-53
2021/03/31 13:04:08;;;;;;;3.67;3.23;;;;;;;;;;5010302;28;20407;-54
2021/03/31 13:06:36;;;;;;;5.13;2.77;;;;;;;;;;5007528;28;20421;-56
2021/03/31 13:09:02;;;;;;;4.03;3.00;;;;;;;;;;5008564;28;20406;-53
2021/03/31 13:11:28;;;;;;;3.30;2.50;;;;;;;;;;5010228;28;20431;-54
2021/03/31 13:24:41;;;;;;;5.13;2.70;;;;;;;;;;4994008;28;20490;-53
2021/03/31 13:32:12;;;;;;;4.30;2.43;;;;;;;;;;5009118;28;20469;-56
2021/03/31 13:34:45;;;;;;;5.70;2.73;;;;;;;;;;5008949;28;20787;-53
2021/03/31 13:37:17;;;;;;;2.80;2.60;;;;;;;;;;5010147;28;20406;-54
2021/03/31 13:39:48;;;;;;;2.93;2.63;;;;;;;;;;5010378;28;20399;-54
2021/03/31 13:42:14;;;;;;;4.57;2.93;;;;;;;;;;5010676;28;20533;-54
2021/03/31 13:44:40;;;;;;;10.80;2.77;;;;;;;;;;5010630;28;20490;-52
2021/03/31 13:47:09;;;;;;;4.73;2.10;;;;;;;;;;5010642;28;20828;-53
2021/03/31 13:49:47;;;;;;;2.60;2.40;;;;;;;;;;5010100;28;20837;-53
2021/03/31 13:52:19;;;;;;;3.97;2.47;;;;;;;;;;5010636;28;20458;-52
2021/03/31 13:55:00;;;;;;;3.60;2.07;;;;;;;;;;5010510;28;20486;-54
2021/03/31 13:57:29;;;;;;;2.50;2.30;;;;;;;;;;5010475;28;20387;-53
2021/03/31 13:59:55;;;;;;;3.00;2.30;;;;;;;;;;5009397;28;20458;-54
2021/03/31 14:02:22;;;;;;;3.30;2.17;;;;;;;;;;5010620;28;20877;-52
2021/03/31 14:04:48;;;;;;;3.77;2.00;;;;;;;;;;5010451;28;20782;-52
2021/03/31 14:07:14;;;;;;;2.50;2.23;;;;;;;;;;5010297;28;20886;-53
2021/03/31 14:09:40;;;;;;;4.03;2.10;;;;;;;;;;5010187;28;20408;-53
2021/03/31 14:12:07;;;;;;;2.83;2.33;;;;;;;;;;5010142;28;20514;-54
2021/03/31 14:14:35;;;;;;;2.80;2.60;;;;;;;;;;5010290;28;20406;-53
2021/03/31 14:17:05;;;;;;;2.93;2.67;;;;;;;;;;5010348;28;20399;-52
2021/03/31 14:19:37;;;;;;;3.10;2.43;;;;;;;;;;5010017;28;20774;-53
2021/03/31 14:22:03;;;;;;;2.00;1.90;;;;;;;;;;5010157;28;20427;-55
2021/03/31 14:24:29;;;;;;;3.30;2.77;;;;;;;;;;5011387;28;20411;-52
2021/03/31 14:26:55;;;;;;;2.40;2.10;;;;;;;;;;5013599;28;20418;-53
2021/03/31 14:29:20;;;;;;;4.20;1.97;;;;;;;;;;5012798;28;20251;-55
2021/03/31 14:31:47;;;;;;;3.50;1.90;;;;;;;;;;5013134;28;20439;-53
2021/03/31 14:34:13;;;;;;;3.13;2.33;;;;;;;;;;5013402;28;20901;-53
2021/03/31 14:36:39;;;;;;;5.60;2.40;;;;;;;;;;5013497;28;20399;-53
2021/03/31 14:39:06;;;;;;;3.73;2.43;;;;;;;;;;5013126;28;20411;-52
2021/03/31 14:41:32;;;;;;;5.93;3.00;;;;;;;;;;5012996;28;21102;-52
2021/03/31 14:43:58;;;;;;;3.50;2.50;;;;;;;;;;5013077;28;20409;-52
2021/03/31 14:46:25;;;;;;;6.40;2.70;;;;;;;;;;5013348;28;20410;-52
2021/03/31 14:48:51;;;;;;;6.47;2.43;;;;;;;;;;5013069;28;20486;-52
2021/03/31 14:51:22;;;;;;;3.80;2.57;;;;;;;;;;5013249;28;20426;-53
2021/03/31 14:57:28;;;;;;;3.27;2.10;;;;;;;;;;5013082;28;20410;-53
2021/03/31 15:01:54;;;;;;;3.43;2.57;;;;;;;;;;5012985;28;20429;-52
2021/03/31 15:04:20;;;;;;;2.60;2.40;;;;;;;;;;5012722;28;20399;-52
2021/03/31 15:06:46;;;;;;;7.07;2.43;;;;;;;;;;5012956;28;20414;-52
2021/03/31 15:09:12;;;;;;;6.20;2.73;;;;;;;;;;5011760;28;20438;-52
2021/03/31 15:11:38;;;;;;;6.10;2.40;;;;;;;;;;5012629;28;20419;-52
2021/03/31 15:14:04;;;;;;;4.60;3.17;;;;;;;;;;5013137;28;20399;-52
2021/03/31 15:16:30;;;;;;;3.70;2.40;;;;;;;;;;5011407;28;20969;-52
2021/03/31 15:18:57;;;;;;;7.23;3.10;;;;;;;;;;5012352;28;20483;-53
2021/03/31 15:21:35;;;;;;;11.20;2.83;;;;;;;;;;5012709;28;20423;-52